Time;durP1;ratioP1;P1;durP2;ratioP2;P2;SDS_P1;SDS_P2;PMS_P1;PMS_P2;Temp;Humidity;BMP_temperature;BMP_pressure;BME280_temperature;BME280_humidity;BME280_pressure;Samples;Min_cycle;Max_cycle;Signal;HPM_P1;HPM_P2
2021/06/13 00:01:02;;;;;;;;;;;24.30;99.90;;;;;;1822667;77;20194;-88
2021/06/13 00:03:32;;;;;;;;;;;24.30;99.90;;;;;;1807147;77;20200;-88
2021/06/13 00:06:02;;;;;;;;;;;24.30;99.90;;;;;;1817135;77;20175;-89
2021/06/13 00:08:32;;;;;;;;;;;24.30;99.90;;;;;;1827431;77;20124;-89
2021/06/13 00:11:02;;;;;;;;;;;24.30;99.90;;;;;;1813842;76;20186;-88
2021/06/13 00:13:31;;;;;;;;;;;24.30;99.90;;;;;;1797841;78;20142;-88
2021/06/13 00:16:01;;;;;;;;;;;24.30;99.90;;;;;;1822642;76;20171;-89
2021/06/13 00:18:31;;;;;;;;;;;24.30;99.90;;;;;;1827783;76;20207;-88
2021/06/13 00:21:02;;;;;;;;;;;24.40;99.90;;;;;;1808052;77;20166;-89
2021/06/13 00:23:32;;;;;;;;;;;24.40;99.90;;;;;;1810909;77;20169;-88
2021/06/13 00:26:03;;;;;;;;;;;24.40;99.90;;;;;;1820330;77;20286;-85
2021/06/13 00:28:32;;;;;;;;;;;24.40;99.90;;;;;;1830299;76;20535;-87
2021/06/13 00:31:02;;;;;;;;;;;24.40;99.90;;;;;;1832986;77;20238;-90
2021/06/13 00:33:33;;;;;;;;;;;24.40;99.90;;;;;;1826565;77;20248;-86
2021/06/13 00:36:02;;;;;;;;;;;24.40;99.90;;;;;;1826608;76;20726;-85
2021/06/13 00:38:32;;;;;;;;;;;24.40;99.90;;;;;;1802889;78;20425;-85
2021/06/13 00:41:14;;;;;;;;;;;24.50;99.90;;;;;;1796788;78;20143;-85
2021/06/13 00:43:44;;;;;;;;;;;24.40;99.90;;;;;;1825497;76;20213;-87
2021/06/13 00:46:14;;;;;;;;;;;24.50;99.90;;;;;;1828079;76;20202;-87
2021/06/13 00:48:48;;;;;;;;;;;24.50;99.90;;;;;;1822921;77;20212;-86
2021/06/13 00:51:22;;;;;;;;;;;24.40;99.90;;;;;;1804670;77;20210;-87
2021/06/13 00:53:51;;;;;;;;;;;24.50;99.90;;;;;;1825459;77;20177;-86
2021/06/13 00:56:52;;;;;;;;;;;24.40;99.90;;;;;;1825245;76;20194;-86
2021/06/13 00:59:35;;;;;;;;;;;24.50;99.90;;;;;;1835793;77;20225;-87
2021/06/13 01:02:08;;;;;;;;;;;24.50;99.90;;;;;;1831114;76;20250;-87
2021/06/13 01:04:38;;;;;;;;;;;24.50;99.90;;;;;;1844925;76;20209;-86
2021/06/13 01:07:09;;;;;;;;;;;24.40;99.90;;;;;;1865261;75;20215;-85
2021/06/13 01:09:39;;;;;;;;;;;24.50;99.90;;;;;;1839985;76;20226;-87
2021/06/13 01:12:10;;;;;;;;;;;24.50;99.90;;;;;;1831669;76;20285;-87
2021/06/13 01:14:41;;;;;;;;;;;24.50;99.90;;;;;;1835640;77;20205;-87
2021/06/13 01:17:12;;;;;;;;;;;24.50;99.90;;;;;;1840909;76;20175;-87
2021/06/13 01:19:44;;;;;;;;;;;24.50;99.90;;;;;;1840158;76;20308;-88
2021/06/13 01:22:15;;;;;;;;;;;24.50;99.90;;;;;;1832614;76;20257;-87
2021/06/13 01:24:46;;;;;;;;;;;24.50;99.90;;;;;;1832850;76;20217;-86
2021/06/13 01:27:26;;;;;;;;;;;24.60;99.90;;;;;;1834903;76;20453;-87
2021/06/13 01:29:58;;;;;;;;;;;24.60;99.90;;;;;;1837310;76;20242;-85
2021/06/13 01:32:29;;;;;;;;;;;24.60;99.90;;;;;;1838247;77;20142;-87
2021/06/13 01:34:59;;;;;;;;;;;24.60;99.90;;;;;;1837686;76;20245;-86
2021/06/13 01:40:59;;;;;;;;;;;24.60;99.90;;;;;;1793703;78;20213;-87
2021/06/13 01:43:47;;;;;;;;;;;24.60;99.90;;;;;;1796275;77;20430;-85
2021/06/13 01:46:20;;;;;;;;;;;24.70;99.90;;;;;;1810554;78;20207;-87
2021/06/13 01:48:53;;;;;;;;;;;24.70;99.90;;;;;;1770718;79;20208;-87
2021/06/13 01:51:28;;;;;;;;;;;24.70;99.90;;;;;;1788453;79;20162;-87
2021/06/13 01:53:59;;;;;;;;;;;24.70;99.90;;;;;;1787268;79;20215;-87
2021/06/13 01:56:30;;;;;;;;;;;24.70;99.90;;;;;;1769608;78;20221;-85
2021/06/13 01:59:00;;;;;;;;;;;24.80;99.90;;;;;;1773672;80;20213;-85
2021/06/13 02:01:30;;;;;;;;;;;24.80;99.90;;;;;;1789038;78;20512;-87
2021/06/13 02:04:01;;;;;;;;;;;24.80;99.90;;;;;;1813141;78;20221;-88
2021/06/13 02:06:32;;;;;;;;;;;24.80;99.90;;;;;;1776386;80;20228;-88
2021/06/13 02:09:03;;;;;;;;;;;24.80;99.90;;;;;;1769950;80;20523;-86
2021/06/13 02:11:33;;;;;;;;;;;24.80;99.90;;;;;;1823842;77;20409;-86
2021/06/13 02:14:03;;;;;;;;;;;24.80;99.90;;;;;;1812401;78;20223;-87
2021/06/13 02:16:33;;;;;;;;;;;24.80;99.90;;;;;;1747548;80;20160;-86
2021/06/13 02:19:18;;;;;;;;;;;24.80;99.90;;;;;;1789704;78;20154;-85
2021/06/13 02:22:06;;;;;;;;;;;24.80;99.90;;;;;;1786526;79;20169;-86
2021/06/13 02:24:29;;;;;;;;;;;24.90;99.90;;;;;;1772978;78;20219;-86
2021/06/13 02:27:02;;;;;;;;;;;24.90;99.90;;;;;;1783477;79;20232;-85
2021/06/13 02:29:32;;;;;;;;;;;24.90;99.90;;;;;;1784578;79;20185;-85
2021/06/13 02:32:03;;;;;;;;;;;24.90;99.90;;;;;;1787111;79;20221;-85
2021/06/13 02:34:37;;;;;;;;;;;24.90;99.90;;;;;;1779337;78;20679;-85
2021/06/13 02:37:11;;;;;;;;;;;24.90;99.90;;;;;;1810093;79;20178;-85
2021/06/13 02:39:37;;;;;;;;;;;25.00;99.90;;;;;;1810264;77;20208;-85
2021/06/13 02:42:08;;;;;;;;;;;25.00;99.90;;;;;;1820507;77;20229;-84
2021/06/13 02:44:37;;;;;;;;;;;25.00;99.90;;;;;;1821018;77;20457;-84
2021/06/13 02:47:08;;;;;;;;;;;25.00;99.90;;;;;;1783776;79;20207;-85
2021/06/13 02:49:38;;;;;;;;;;;25.00;99.90;;;;;;1784475;79;20172;-85
2021/06/13 02:52:10;;;;;;;;;;;24.90;99.90;;;;;;1781219;78;20136;-86
2021/06/13 02:54:46;;;;;;;;;;;24.90;99.90;;;;;;1782387;79;20164;-86
2021/06/13 02:57:27;;;;;;;;;;;;;;;;;;;;;
2021/06/13 03:00:12;;;;;;;;;;;24.90;99.90;;;;;;1772202;79;20163;-86
2021/06/13 03:02:46;;;;;;;;;;;24.90;99.90;;;;;;1786244;80;20251;-83
2021/06/13 03:05:17;;;;;;;;;;;24.90;99.90;;;;;;1770281;80;20279;-85
2021/06/13 03:07:47;;;;;;;;;;;24.90;99.90;;;;;;1789139;80;20174;-85
2021/06/13 03:10:17;;;;;;;;;;;24.80;99.90;;;;;;1780310;78;20198;-85
2021/06/13 03:12:54;;;;;;;;;;;24.80;99.90;;;;;;1771887;80;20208;-84
2021/06/13 03:15:29;;;;;;;;;;;24.80;99.90;;;;;;1787104;78;20492;-85
2021/06/13 03:18:02;;;;;;;;;;;24.80;99.90;;;;;;1779081;78;20236;-85
2021/06/13 03:20:33;;;;;;;;;;;24.80;99.90;;;;;;1780643;79;20459;-85
2021/06/13 03:23:03;;;;;;;;;;;24.80;99.90;;;;;;1784523;79;20134;-85
2021/06/13 03:25:32;;;;;;;;;;;24.80;99.90;;;;;;1794018;79;20177;-85
2021/06/13 03:28:02;;;;;;;;;;;24.80;99.90;;;;;;1780129;78;20201;-85
2021/06/13 03:30:32;;;;;;;;;;;24.80;99.90;;;;;;1777105;79;20164;-85
2021/06/13 03:33:07;;;;;;;;;;;24.80;99.90;;;;;;1777014;79;20207;-84
2021/06/13 03:35:38;;;;;;;;;;;24.80;99.90;;;;;;1782919;79;20143;-84
2021/06/13 03:38:12;;;;;;;;;;;24.80;99.90;;;;;;1788265;79;20195;-84
2021/06/13 03:40:51;;;;;;;;;;;24.80;99.90;;;;;;1782221;79;20213;-85
2021/06/13 03:43:30;;;;;;;;;;;24.80;99.90;;;;;;1789792;79;20311;-87
2021/06/13 03:46:30;;;;;;;;;;;24.80;99.90;;;;;;1842824;76;20246;-84
2021/06/13 03:49:17;;;;;;;;;;;24.80;99.90;;;;;;1814396;76;20191;-76
2021/06/13 03:51:47;;;;;;;;;;;24.80;99.90;;;;;;1837147;78;20213;-74
2021/06/13 03:54:17;;;;;;;;;;;24.80;99.90;;;;;;1834188;77;20260;-74
2021/06/13 03:56:48;;;;;;;;;;;24.70;99.90;;;;;;1828756;77;20207;-75
2021/06/13 03:59:19;;;;;;;;;;;24.70;99.90;;;;;;1814739;77;20137;-75
2021/06/13 04:01:49;;;;;;;;;;;24.70;99.90;;;;;;1823560;78;20211;-75
2021/06/13 04:04:19;;;;;;;;;;;24.70;99.90;;;;;;1801696;78;20243;-76
2021/06/13 04:06:49;;;;;;;;;;;24.70;99.90;;;;;;1809899;78;20180;-75
2021/06/13 04:09:20;;;;;;;;;;;24.70;99.90;;;;;;1811108;77;20899;-74
2021/06/13 04:11:51;;;;;;;;;;;24.60;99.90;;;;;;1803283;78;20243;-74
2021/06/13 04:14:22;;;;;;;;;;;24.60;99.90;;;;;;1807243;77;20448;-77
2021/06/13 04:16:53;;;;;;;;;;;24.60;99.90;;;;;;1812168;77;20220;-75
2021/06/13 04:19:23;;;;;;;;;;;24.60;99.90;;;;;;1815584;77;20444;-75
2021/06/13 04:21:54;;;;;;;;;;;24.70;99.90;;;;;;1812279;77;20243;-76
2021/06/13 04:24:24;;;;;;;;;;;24.70;99.90;;;;;;1826767;77;20273;-76
2021/06/13 04:26:55;;;;;;;;;;;24.70;99.90;;;;;;1818036;78;20218;-76
2021/06/13 04:29:24;;;;;;;;;;;24.70;99.90;;;;;;1822556;78;20229;-76
2021/06/13 04:31:54;;;;;;;;;;;24.70;99.90;;;;;;1798693;78;20523;-77
2021/06/13 04:34:24;;;;;;;;;;;24.70;99.90;;;;;;1804198;78;20239;-78
2021/06/13 04:36:54;;;;;;;;;;;24.80;99.90;;;;;;1788136;78;20221;-77
2021/06/13 04:39:23;;;;;;;;;;;24.80;99.90;;;;;;1793240;78;20481;-78
2021/06/13 04:41:54;;;;;;;;;;;24.80;99.90;;;;;;1790279;78;20479;-78
2021/06/13 04:44:26;;;;;;;;;;;24.80;99.90;;;;;;1802174;78;20456;-76
2021/06/13 04:46:59;;;;;;;;;;;24.90;99.90;;;;;;1805671;78;20413;-76
2021/06/13 04:49:30;;;;;;;;;;;24.90;99.90;;;;;;1794123;78;20243;-76
2021/06/13 04:52:00;;;;;;;;;;;25.00;99.90;;;;;;1800283;78;20265;-76
2021/06/13 04:54:35;;;;;;;;;;;25.00;99.90;;;;;;1801807;78;20219;-76
2021/06/13 04:57:06;;;;;;;;;;;25.00;99.90;;;;;;1798639;78;20232;-77
2021/06/13 04:59:36;;;;;;;;;;;25.00;99.90;;;;;;1801000;78;20156;-76
2021/06/13 05:02:05;;;;;;;;;;;25.00;99.90;;;;;;1801677;78;20199;-76
2021/06/13 05:04:35;;;;;;;;;;;25.10;99.90;;;;;;1794596;78;20437;-76
2021/06/13 05:07:06;;;;;;;;;;;25.10;99.90;;;;;;1790589;78;20389;-76
2021/06/13 05:09:35;;;;;;;;;;;25.10;99.90;;;;;;1791830;78;20456;-78
2021/06/13 05:12:07;;;;;;;;;;;25.20;99.90;;;;;;1787380;78;20172;-77
2021/06/13 05:14:38;;;;;;;;;;;25.20;99.90;;;;;;1794654;78;20275;-77
2021/06/13 05:17:08;;;;;;;;;;;25.30;99.90;;;;;;1792304;78;20221;-77
2021/06/13 05:19:38;;;;;;;;;;;25.30;99.90;;;;;;1793244;78;20547;-77
2021/06/13 05:22:08;;;;;;;;;;;25.30;99.90;;;;;;1800146;78;20191;-77
2021/06/13 05:24:38;;;;;;;;;;;25.30;99.90;;;;;;1794863;78;20243;-76
2021/06/13 05:27:08;;;;;;;;;;;25.30;99.90;;;;;;1803235;78;20180;-75
2021/06/13 05:29:39;;;;;;;;;;;25.40;99.90;;;;;;1796694;78;20231;-76
2021/06/13 05:32:08;;;;;;;;;;;25.40;99.90;;;;;;1769808;80;20165;-76
2021/06/13 05:34:38;;;;;;;;;;;25.40;99.90;;;;;;1768311;80;20393;-76
2021/06/13 05:37:08;;;;;;;;;;;25.50;99.90;;;;;;1776106;80;20139;-76
2021/06/13 05:39:37;;;;;;;;;;;25.50;99.90;;;;;;1827984;77;20214;-76
2021/06/13 05:42:08;;;;;;;;;;;25.50;99.90;;;;;;1838667;75;20240;-74
2021/06/13 05:44:37;;;;;;;;;;;25.60;99.90;;;;;;1823696;75;20219;-76
2021/06/13 05:47:07;;;;;;;;;;;25.60;99.90;;;;;;1822963;75;20249;-76
2021/06/13 05:49:37;;;;;;;;;;;25.60;99.90;;;;;;1818081;75;20467;-76
2021/06/13 05:52:07;;;;;;;;;;;25.60;99.90;;;;;;1818282;75;20266;-76
2021/06/13 05:54:39;;;;;;;;;;;25.70;99.90;;;;;;1820609;75;20176;-77
2021/06/13 05:57:11;;;;;;;;;;;25.70;99.90;;;;;;1821528;76;20245;-77
2021/06/13 05:59:41;;;;;;;;;;;25.70;99.90;;;;;;1815992;77;20235;-77
2021/06/13 06:02:14;;;;;;;;;;;25.70;99.90;;;;;;1818397;77;20286;-77
2021/06/13 06:04:43;;;;;;;;;;;25.70;99.90;;;;;;1815481;77;20207;-77
2021/06/13 06:07:14;;;;;;;;;;;25.60;99.90;;;;;;1818797;77;20456;-76
2021/06/13 06:09:45;;;;;;;;;;;25.60;99.90;;;;;;1813553;77;20220;-77
2021/06/13 06:12:34;;;;;;;;;;;25.60;99.90;;;;;;1816217;76;20260;-76
2021/06/13 06:15:05;;;;;;;;;;;25.60;99.90;;;;;;1887874;74;20130;-77
2021/06/13 06:17:36;;;;;;;;;;;25.60;99.90;;;;;;1901234;73;20173;-76
2021/06/13 06:20:07;;;;;;;;;;;25.50;99.90;;;;;;1926187;73;20227;-78
2021/06/13 06:22:37;;;;;;;;;;;25.60;99.90;;;;;;1903159;73;20523;-75
2021/06/13 06:25:09;;;;;;;;;;;25.60;99.90;;;;;;1911974;73;20431;-75
2021/06/13 06:27:41;;;;;;;;;;;25.60;99.90;;;;;;1879419;73;20160;-76
2021/06/13 06:30:12;;;;;;;;;;;25.60;99.90;;;;;;1869607;75;20166;-75
2021/06/13 06:32:46;;;;;;;;;;;25.60;99.90;;;;;;1844661;76;20457;-77
2021/06/13 06:35:18;;;;;;;;;;;25.60;99.90;;;;;;1862418;76;20655;-77
2021/06/13 06:37:48;;;;;;;;;;;25.60;99.90;;;;;;1859876;75;20215;-77
2021/06/13 06:40:18;;;;;;;;;;;25.70;99.90;;;;;;1866981;75;20505;-76
2021/06/13 06:42:48;;;;;;;;;;;25.60;99.90;;;;;;1859947;75;20231;-77
2021/06/13 06:45:18;;;;;;;;;;;25.60;99.90;;;;;;1861989;75;20180;-77
2021/06/13 06:47:48;;;;;;;;;;;25.60;99.90;;;;;;1862715;75;20220;-77
2021/06/13 06:50:18;;;;;;;;;;;25.60;99.90;;;;;;1861388;75;20219;-77
2021/06/13 06:52:48;;;;;;;;;;;25.70;99.90;;;;;;1857795;75;20160;-77
2021/06/13 06:55:18;;;;;;;;;;;25.80;99.90;;;;;;1864471;75;20209;-76
2021/06/13 06:57:48;;;;;;;;;;;25.80;99.90;;;;;;1873001;75;20164;-77
2021/06/13 07:00:18;;;;;;;;;;;25.90;99.90;;;;;;1860088;75;20213;-76
2021/06/13 07:02:48;;;;;;;;;;;26.00;99.90;;;;;;1867273;75;20198;-77
2021/06/13 07:05:19;;;;;;;;;;;26.10;99.90;;;;;;1836070;76;20221;-77
2021/06/13 07:07:49;;;;;;;;;;;26.20;99.90;;;;;;1832099;76;20199;-78
2021/06/13 07:10:18;;;;;;;;;;;26.20;99.90;;;;;;1842895;76;20223;-77
2021/06/13 07:12:48;;;;;;;;;;;26.40;99.90;;;;;;1831227;76;20241;-77
2021/06/13 07:15:19;;;;;;;;;;;26.40;99.90;;;;;;1841581;75;20122;-76
2021/06/13 07:17:49;;;;;;;;;;;26.50;99.90;;;;;;1829223;76;20178;-75
2021/06/13 07:20:19;;;;;;;;;;;26.60;99.90;;;;;;1821781;77;20186;-75
2021/06/13 07:22:48;;;;;;;;;;;26.60;99.90;;;;;;1821847;77;20227;-77
2021/06/13 07:25:18;;;;;;;;;;;26.70;99.90;;;;;;1823563;77;20178;-75
2021/06/13 07:27:48;;;;;;;;;;;26.80;99.90;;;;;;1826995;76;20179;-76
2021/06/13 07:30:18;;;;;;;;;;;26.80;99.90;;;;;;1836072;76;20233;-75
2021/06/13 07:32:49;;;;;;;;;;;26.90;99.90;;;;;;1817167;78;20699;-76
2021/06/13 07:35:19;;;;;;;;;;;26.90;99.90;;;;;;1824627;77;20616;-75
2021/06/13 07:37:49;;;;;;;;;;;26.90;99.90;;;;;;1822806;77;20701;-76
2021/06/13 07:40:21;;;;;;;;;;;26.90;99.90;;;;;;1822693;77;20489;-76
2021/06/13 07:42:50;;;;;;;;;;;27.00;99.90;;;;;;1811529;77;20211;-76
2021/06/13 07:45:20;;;;;;;;;;;27.00;99.90;;;;;;1810369;78;20164;-76
2021/06/13 07:47:50;;;;;;;;;;;27.00;99.90;;;;;;1819578;77;20501;-76
2021/06/13 07:50:21;;;;;;;;;;;27.00;99.90;;;;;;1809190;78;20424;-77
2021/06/13 07:52:51;;;;;;;;;;;27.00;99.90;;;;;;1828067;78;20454;-77
2021/06/13 07:55:22;;;;;;;;;;;27.00;99.90;;;;;;1812636;77;20208;-76
2021/06/13 07:57:51;;;;;;;;;;;27.00;99.90;;;;;;1810181;78;20217;-78
2021/06/13 08:00:23;;;;;;;;;;;27.00;99.90;;;;;;1816047;77;20320;-79
2021/06/13 08:02:53;;;;;;;;;;;27.00;99.90;;;;;;1808760;78;20145;-79
2021/06/13 08:05:25;;;;;;;;;;;27.00;99.90;;;;;;1815387;77;20170;-79
2021/06/13 08:07:56;;;;;;;;;;;27.00;99.90;;;;;;1819442;78;20213;-77
2021/06/13 08:10:26;;;;;;;;;;;27.00;99.90;;;;;;1819994;77;20168;-78
2021/06/13 08:12:57;;;;;;;;;;;27.00;99.90;;;;;;1826515;78;20243;-78
2021/06/13 08:15:29;;;;;;;;;;;27.10;99.90;;;;;;1805925;77;20226;-78
2021/06/13 08:17:59;;;;;;;;;;;27.10;99.90;;;;;;1811077;78;20199;-77
2021/06/13 08:20:38;;;;;;;;;;;27.10;99.90;;;;;;1813834;77;20424;-77
2021/06/13 08:23:14;;;;;;;;;;;27.10;99.90;;;;;;1812203;77;20148;-78
2021/06/13 08:25:43;;;;;;;;;;;27.10;99.90;;;;;;1813205;78;20456;-78
2021/06/13 08:28:14;;;;;;;;;;;27.10;99.90;;;;;;1811284;78;20512;-77
2021/06/13 08:30:44;;;;;;;;;;;27.10;99.90;;;;;;1809088;78;20167;-75
2021/06/13 08:33:14;;;;;;;;;;;27.10;99.90;;;;;;1810554;78;20446;-76
2021/06/13 08:35:44;;;;;;;;;;;27.10;99.90;;;;;;1821618;77;20183;-76
2021/06/13 08:38:13;;;;;;;;;;;27.10;99.90;;;;;;1836188;78;20428;-77
2021/06/13 08:40:43;;;;;;;;;;;27.10;99.90;;;;;;1828270;77;20168;-76
2021/06/13 08:43:13;;;;;;;;;;;27.10;99.90;;;;;;1827681;78;20184;-77
2021/06/13 08:45:43;;;;;;;;;;;27.20;99.90;;;;;;1833323;78;20257;-77
2021/06/13 08:48:14;;;;;;;;;;;27.20;99.90;;;;;;1813074;78;20217;-77
2021/06/13 08:50:44;;;;;;;;;;;27.20;99.90;;;;;;1816345;78;20247;-77
2021/06/13 08:53:15;;;;;;;;;;;27.20;99.90;;;;;;1816130;78;20243;-76
2021/06/13 08:55:45;;;;;;;;;;;27.20;99.90;;;;;;1814256;78;20222;-76
2021/06/13 08:58:16;;;;;;;;;;;27.20;99.90;;;;;;1807859;78;20230;-76
2021/06/13 09:00:47;;;;;;;;;;;27.10;99.90;;;;;;1810769;78;20428;-77
2021/06/13 09:03:19;;;;;;;;;;;27.10;99.90;;;;;;1823200;77;20654;-76
2021/06/13 09:05:51;;;;;;;;;;;27.10;99.90;;;;;;1819917;78;20192;-76
2021/06/13 09:08:20;;;;;;;;;;;27.10;99.90;;;;;;1803905;78;20452;-76
2021/06/13 09:10:49;;;;;;;;;;;27.10;99.90;;;;;;1823199;78;20365;-76
2021/06/13 09:13:24;;;;;;;;;;;27.10;99.90;;;;;;1823253;78;20164;-76
2021/06/13 09:15:55;;;;;;;;;;;27.10;99.90;;;;;;1829007;77;20230;-75
2021/06/13 09:18:27;;;;;;;;;;;27.00;99.90;;;;;;1832806;75;20274;-76
2021/06/13 09:20:58;;;;;;;;;;;27.00;99.90;;;;;;1839012;77;20188;-76
2021/06/13 09:23:29;;;;;;;;;;;27.00;99.90;;;;;;1833184;78;20499;-76
2021/06/13 09:26:00;;;;;;;;;;;27.00;99.90;;;;;;1825941;77;20178;-75
2021/06/13 09:28:32;;;;;;;;;;;27.00;99.90;;;;;;1830861;78;20228;-76
2021/06/13 09:31:02;;;;;;;;;;;27.00;99.90;;;;;;1830277;78;20242;-76
2021/06/13 09:33:33;;;;;;;;;;;27.00;99.90;;;;;;1833156;77;20255;-76
2021/06/13 09:36:04;;;;;;;;;;;27.00;99.90;;;;;;1831792;78;20534;-74
2021/06/13 09:38:36;;;;;;;;;;;27.00;99.90;;;;;;1824262;76;20284;-74
2021/06/13 09:41:09;;;;;;;;;;;27.00;99.90;;;;;;1829789;78;20188;-74
2021/06/13 09:43:40;;;;;;;;;;;27.00;99.90;;;;;;1819864;77;20243;-75
2021/06/13 09:46:11;;;;;;;;;;;27.00;99.90;;;;;;1831433;77;20455;-74
2021/06/13 09:48:42;;;;;;;;;;;27.00;99.90;;;;;;1833424;78;20160;-75
2021/06/13 09:51:13;;;;;;;;;;;27.00;99.90;;;;;;1829558;78;20539;-75
2021/06/13 09:53:47;;;;;;;;;;;26.90;99.90;;;;;;1829390;78;20238;-75
2021/06/13 09:56:16;;;;;;;;;;;26.90;99.90;;;;;;1824441;78;20246;-75
2021/06/13 09:58:46;;;;;;;;;;;26.90;99.90;;;;;;1831306;78;20256;-76
2021/06/13 10:01:17;;;;;;;;;;;26.90;99.90;;;;;;1830004;78;20176;-74
2021/06/13 10:03:47;;;;;;;;;;;26.90;99.90;;;;;;1832635;78;20172;-75
2021/06/13 10:06:19;;;;;;;;;;;26.90;99.90;;;;;;1830094;77;20207;-75
2021/06/13 10:08:52;;;;;;;;;;;26.90;99.90;;;;;;1832974;78;20533;-76
2021/06/13 10:11:22;;;;;;;;;;;26.90;99.90;;;;;;1832866;78;20244;-76
2021/06/13 10:13:51;;;;;;;;;;;26.90;99.90;;;;;;1833664;78;20176;-75
2021/06/13 10:16:23;;;;;;;;;;;26.90;99.90;;;;;;1820102;76;20228;-75
2021/06/13 10:18:54;;;;;;;;;;;26.90;99.90;;;;;;1822715;78;20192;-76
2021/06/13 10:21:25;;;;;;;;;;;26.90;99.90;;;;;;1833550;78;20232;-75
2021/06/13 10:23:58;;;;;;;;;;;26.80;99.90;;;;;;1822000;77;20246;-75
2021/06/13 10:26:28;;;;;;;;;;;26.80;99.90;;;;;;1826700;78;20316;-75
2021/06/13 10:28:58;;;;;;;;;;;26.80;99.90;;;;;;1827043;77;20207;-75
2021/06/13 10:31:27;;;;;;;;;;;26.80;99.90;;;;;;1827396;77;20218;-75
2021/06/13 10:33:57;;;;;;;;;;;26.80;99.90;;;;;;1823391;77;20487;-75
2021/06/13 10:36:27;;;;;;;;;;;26.80;99.90;;;;;;1828793;77;20235;-75
2021/06/13 10:38:59;;;;;;;;;;;26.80;99.90;;;;;;1833132;78;20204;-74
2021/06/13 10:41:30;;;;;;;;;;;26.80;99.90;;;;;;1842194;76;20232;-74
2021/06/13 10:44:02;;;;;;;;;;;26.70;99.90;;;;;;1834325;76;20171;-74
2021/06/13 10:46:32;;;;;;;;;;;26.70;99.90;;;;;;1837569;77;20208;-74
2021/06/13 10:49:03;;;;;;;;;;;26.70;99.90;;;;;;1821518;78;20172;-74
2021/06/13 10:51:35;;;;;;;;;;;26.70;99.90;;;;;;1824149;77;20182;-74
2021/06/13 10:54:05;;;;;;;;;;;26.70;99.90;;;;;;1833832;77;20212;-75
2021/06/13 10:56:35;;;;;;;;;;;26.60;99.90;;;;;;1835018;78;20208;-75
2021/06/13 10:59:06;;;;;;;;;;;26.60;99.90;;;;;;1831988;77;20498;-76
2021/06/13 11:01:38;;;;;;;;;;;26.60;99.90;;;;;;1820629;78;20186;-76
2021/06/13 11:04:07;;;;;;;;;;;26.60;99.90;;;;;;1823652;78;20230;-77
2021/06/13 11:06:37;;;;;;;;;;;26.60;99.90;;;;;;1835821;77;20137;-76
2021/06/13 11:09:09;;;;;;;;;;;26.60;99.90;;;;;;1832608;78;20258;-77
2021/06/13 11:11:39;;;;;;;;;;;26.50;99.90;;;;;;1833347;78;20182;-76
2021/06/13 11:14:10;;;;;;;;;;;26.50;99.90;;;;;;1831404;78;20227;-74
2021/06/13 11:16:40;;;;;;;;;;;26.50;99.90;;;;;;1858224;76;20262;-75
2021/06/13 11:19:11;;;;;;;;;;;26.50;99.90;;;;;;1879998;76;20235;-75
2021/06/13 11:21:41;;;;;;;;;;;26.50;99.90;;;;;;1875354;76;20331;-76
2021/06/13 11:24:11;;;;;;;;;;;26.50;99.90;;;;;;1877622;76;20138;-75
2021/06/13 11:26:40;;;;;;;;;;;26.50;99.90;;;;;;1880506;75;20141;-75
2021/06/13 11:29:11;;;;;;;;;;;26.40;99.90;;;;;;1875715;75;20169;-75
2021/06/13 11:31:42;;;;;;;;;;;26.50;99.90;;;;;;1876562;76;20202;-76
2021/06/13 11:34:12;;;;;;;;;;;26.50;99.90;;;;;;1876836;76;20222;-76
2021/06/13 11:36:42;;;;;;;;;;;26.40;99.90;;;;;;1888210;75;20163;-76
2021/06/13 11:39:11;;;;;;;;;;;26.40;99.90;;;;;;1888041;75;20401;-75
2021/06/13 11:41:43;;;;;;;;;;;26.40;99.90;;;;;;1902460;74;20391;-75
2021/06/13 11:44:13;;;;;;;;;;;26.40;99.90;;;;;;1908045;73;20212;-75
2021/06/13 11:46:44;;;;;;;;;;;26.40;99.90;;;;;;1911210;74;20242;-75
2021/06/13 11:49:15;;;;;;;;;;;26.40;99.90;;;;;;1925565;74;20128;-75
2021/06/13 11:51:47;;;;;;;;;;;26.40;99.90;;;;;;1919748;74;20179;-75
2021/06/13 11:54:18;;;;;;;;;;;26.30;99.90;;;;;;1927693;74;20210;-83
2021/06/13 11:56:47;;;;;;;;;;;26.30;99.90;;;;;;1905022;74;20157;-87
2021/06/13 11:59:18;;;;;;;;;;;26.30;99.90;;;;;;1909465;74;20458;-90
2021/06/13 12:01:49;;;;;;;;;;;26.30;99.90;;;;;;1917277;74;20501;-89
2021/06/13 12:04:20;;;;;;;;;;;26.30;99.90;;;;;;1900347;74;20126;-88
2021/06/13 12:06:50;;;;;;;;;;;26.20;99.90;;;;;;1913707;74;20226;-87
2021/06/13 12:09:21;;;;;;;;;;;26.20;99.90;;;;;;1897147;76;20164;-89
2021/06/13 12:11:50;;;;;;;;;;;26.20;99.90;;;;;;1896688;76;20363;-90
2021/06/13 12:14:21;;;;;;;;;;;26.20;99.90;;;;;;1895438;74;20187;-89
2021/06/13 12:16:52;;;;;;;;;;;26.20;99.90;;;;;;1827857;78;20190;-90
2021/06/13 12:19:23;;;;;;;;;;;26.20;99.90;;;;;;1835885;77;20124;-90
2021/06/13 12:21:53;;;;;;;;;;;26.20;99.90;;;;;;1841477;77;20117;-90
2021/06/13 12:29:26;;;;;;;;;;;26.20;99.90;;;;;;1845751;76;20239;-90
2021/06/13 12:31:56;;;;;;;;;;;26.20;99.90;;;;;;1817947;78;20253;-92
2021/06/13 12:34:26;;;;;;;;;;;26.10;99.90;;;;;;1822531;77;20252;-90
2021/06/13 12:36:56;;;;;;;;;;;26.10;99.90;;;;;;1849898;77;20482;-90
2021/06/13 12:39:25;;;;;;;;;;;26.10;99.90;;;;;;1849897;78;20163;-90
2021/06/13 12:41:56;;;;;;;;;;;26.10;99.90;;;;;;1829537;78;20199;-92
2021/06/13 12:44:26;;;;;;;;;;;26.10;99.90;;;;;;1829218;77;20397;-90
2021/06/13 12:46:56;;;;;;;;;;;26.10;99.90;;;;;;1821404;78;20223;-90
2021/06/13 12:49:27;;;;;;;;;;;26.10;99.90;;;;;;1817645;78;20616;-90
2021/06/13 12:51:58;;;;;;;;;;;26.10;99.90;;;;;;1818328;78;20224;-90
2021/06/13 12:54:28;;;;;;;;;;;26.10;99.90;;;;;;1816155;79;20186;-90
2021/06/13 12:57:00;;;;;;;;;;;26.10;99.90;;;;;;1819513;79;20194;-91
2021/06/13 12:59:30;;;;;;;;;;;26.00;99.90;;;;;;1833585;78;20133;-92
2021/06/13 13:02:00;;;;;;;;;;;26.00;99.90;;;;;;1848832;78;20211;-92
2021/06/13 13:04:31;;;;;;;;;;;26.00;99.90;;;;;;1850252;76;20163;-92
2021/06/13 13:07:01;;;;;;;;;;;26.00;99.90;;;;;;1844567;78;20271;-91
2021/06/13 13:09:31;;;;;;;;;;;26.00;99.90;;;;;;1842495;78;20234;-92
2021/06/13 13:12:02;;;;;;;;;;;26.00;99.90;;;;;;1828159;78;20274;-91
2021/06/13 13:14:31;;;;;;;;;;;26.00;99.90;;;;;;1837229;78;20272;-92
2021/06/13 13:17:01;;;;;;;;;;;26.00;99.90;;;;;;1839866;77;20536;-91
2021/06/13 13:19:32;;;;;;;;;;;26.00;99.90;;;;;;1847529;77;20215;-91
2021/06/13 13:22:04;;;;;;;;;;;26.00;99.90;;;;;;1844992;77;20199;-89
2021/06/13 13:24:33;;;;;;;;;;;26.00;99.90;;;;;;1845955;77;20241;-91
2021/06/13 13:27:07;;;;;;;;;;;25.90;99.90;;;;;;1844454;77;20496;-91
2021/06/13 13:29:43;;;;;;;;;;;25.90;99.90;;;;;;1836089;77;20147;-91
2021/06/13 13:32:14;;;;;;;;;;;26.00;99.90;;;;;;1838152;77;20199;-92
2021/06/13 13:34:45;;;;;;;;;;;25.90;99.90;;;;;;1828188;77;20192;-93
2021/06/13 13:37:17;;;;;;;;;;;25.90;99.90;;;;;;1835190;77;20241;-91
2021/06/13 13:39:47;;;;;;;;;;;25.90;99.90;;;;;;1828422;77;20215;-92
2021/06/13 13:42:19;;;;;;;;;;;25.90;99.90;;;;;;1823931;77;20445;-90
2021/06/13 13:44:50;;;;;;;;;;;25.90;99.90;;;;;;1834313;77;20560;-93
2021/06/13 13:47:23;;;;;;;;;;;25.90;99.90;;;;;;1839702;77;20525;-92
2021/06/13 13:49:54;;;;;;;;;;;25.90;99.90;;;;;;1836374;77;20231;-92
2021/06/13 13:52:24;;;;;;;;;;;25.90;99.90;;;;;;1841429;77;20167;-91
2021/06/13 13:54:59;;;;;;;;;;;25.90;99.90;;;;;;1844259;76;20215;-93
2021/06/13 13:57:29;;;;;;;;;;;25.90;99.90;;;;;;1842745;77;20269;-91
2021/06/13 13:59:59;;;;;;;;;;;25.90;99.90;;;;;;1837668;77;20219;-92
2021/06/13 14:02:29;;;;;;;;;;;25.90;99.90;;;;;;1845178;77;20195;-90
2021/06/13 14:05:01;;;;;;;;;;;25.90;99.90;;;;;;1838705;77;20213;-91
2021/06/13 14:07:32;;;;;;;;;;;25.90;99.90;;;;;;1832553;77;20211;-92
2021/06/13 14:10:02;;;;;;;;;;;25.90;99.90;;;;;;1843486;77;20226;-93
2021/06/13 14:12:34;;;;;;;;;;;25.90;99.90;;;;;;1840320;77;20550;-92
2021/06/13 14:15:05;;;;;;;;;;;25.90;99.90;;;;;;1844436;77;20116;-92
2021/06/13 14:17:34;;;;;;;;;;;25.90;99.90;;;;;;1840305;77;20156;-92
2021/06/13 14:20:06;;;;;;;;;;;25.80;99.90;;;;;;1831338;78;20172;-92
2021/06/13 14:22:35;;;;;;;;;;;25.80;99.90;;;;;;1832911;78;20220;-92
2021/06/13 14:25:06;;;;;;;;;;;25.90;99.90;;;;;;1830939;75;20184;-92
2021/06/13 14:27:35;;;;;;;;;;;25.80;99.90;;;;;;1833576;78;20188;-91
2021/06/13 14:30:14;;;;;;;;;;;25.90;99.90;;;;;;1832214;77;20188;-90
2021/06/13 14:32:44;;;;;;;;;;;25.80;99.90;;;;;;1824112;75;20203;-94
2021/06/13 14:35:15;;;;;;;;;;;25.80;99.90;;;;;;1833542;78;20176;-92
2021/06/13 14:37:45;;;;;;;;;;;25.90;99.90;;;;;;1835290;76;20164;-91
2021/06/13 14:40:17;;;;;;;;;;;25.80;99.90;;;;;;1834908;78;20187;-91
2021/06/13 14:42:56;;;;;;;;;;;25.90;99.90;;;;;;1799260;77;20316;-91
2021/06/13 14:45:28;;;;;;;;;;;25.80;99.90;;;;;;1761707;80;20131;-92
2021/06/13 14:48:04;;;;;;;;;;;25.80;99.90;;;;;;1804201;79;20217;-91
2021/06/13 14:50:35;;;;;;;;;;;25.80;99.90;;;;;;1760817;79;20173;-91